Terminal Aerodrome Forecast
Issued by NWS Charleston, WV

Current Version | Previous Version | Graphics & Text | Print | Product List | Glossary On
Versions: 1 2 3 4 5 6 7 8 9 10 11 12 13 14 15 16 17 18 19 20 21 22 23 24
073
FTUS41 KRLX 211130
TAFCRW
TAF
KCRW 211130Z 2112/2212 00000KT 6SM BR BKN050
     FM211600 24005KT P6SM VCTS BKN050CB
     FM220000 VRB02KT P6SM BKN100
     FM220300 00000KT P6SM SCT100=

USA.gov is the U.S. government's official web portal to all federal, state and local government web resources and services.